Time;durP1;ratioP1;P1;durP2;ratioP2;P2;SDS_P1;SDS_P2;PMS_P1;PMS_P2;Temp;Humidity;BMP_temperature;BMP_pressure;BME280_temperature;BME280_humidity;BME280_pressure;Samples;Min_cycle;Max_cycle;Signal;HPM_P1;HPM_P2
2021/12/19 00:08:48;;;;;;;9.27;4.40;;;;;;;-1.00;100.00;95330.84;10359885;28;20113;-74
2021/12/19 00:13:50;;;;;;;9.93;5.60;;;;;;;-1.17;100.00;95322.31;10361818;28;20412;-74
2021/12/19 00:18:52;;;;;;;10.60;6.25;;;;;;;-1.46;100.00;95308.19;10367155;28;20026;-73
2021/12/19 00:23:54;;;;;;;12.50;6.32;;;;;;;-1.57;100.00;95306.00;10367816;28;20084;-72
2021/12/19 00:28:55;;;;;;;10.30;6.43;;;;;;;-1.53;100.00;95303.81;10366978;28;20018;-70
2021/12/19 00:33:56;;;;;;;12.77;7.20;;;;;;;-1.77;100.00;95303.13;10366850;28;20036;-73
2021/12/19 00:38:57;;;;;;;10.15;6.82;;;;;;;-1.77;100.00;95297.84;10368153;28;20488;-70
2021/12/19 00:44:08;;;;;;;11.27;7.35;;;;;;;-1.84;100.00;95305.66;10365847;28;20026;-73
2021/12/19 00:49:09;;;;;;;10.80;6.57;;;;;;;-1.70;100.00;95304.03;10368652;28;20614;-72
2021/12/19 00:54:09;;;;;;;13.38;7.63;;;;;;;-1.82;100.00;95310.75;10383274;28;20046;-69
2021/12/19 00:59:11;;;;;;;11.23;7.60;;;;;;;-1.85;100.00;95290.03;10382378;28;20539;-70
2021/12/19 01:04:14;;;;;;;11.82;8.32;;;;;;;-2.00;100.00;95271.59;10365307;28;20030;-72
2021/12/19 01:09:15;;;;;;;10.82;7.10;;;;;;;-2.10;100.00;95272.66;10365029;28;20488;-69
2021/12/19 01:14:16;;;;;;;14.38;8.43;;;;;;;-2.18;100.00;95272.75;10364504;28;20053;-69
2021/12/19 01:19:17;;;;;;;10.48;6.35;;;;;;;-2.12;100.00;95268.56;10364873;28;20037;-73
2021/12/19 01:24:17;;;;;;;11.93;7.75;;;;;;;-2.12;100.00;95269.41;10379414;28;20837;-75
2021/12/19 01:29:18;;;;;;;12.70;7.45;;;;;;;-2.29;100.00;95273.19;10365426;28;20502;-70
2021/12/19 01:34:19;;;;;;;11.80;7.80;;;;;;;-2.19;100.00;95267.66;10365442;28;20017;-70
2021/12/19 01:39:19;;;;;;;19.13;8.48;;;;;;;-2.24;100.00;95252.41;10350772;28;20172;-71
2021/12/19 01:44:20;;;;;;;13.23;8.50;;;;;;;-2.32;100.00;95248.03;10365175;28;20492;-74
2021/12/19 01:49:22;;;;;;;13.38;8.40;;;;;;;-2.04;100.00;95249.25;10363464;28;20168;-75
2021/12/19 01:54:22;;;;;;;12.85;7.60;;;;;;;-2.21;100.00;95246.78;10364282;28;20432;-71
2021/12/19 01:59:23;;;;;;;14.18;7.63;;;;;;;-2.22;100.00;95244.34;10378916;28;20030;-75
2021/12/19 02:04:29;;;;;;;10.02;6.45;;;;;;;-2.21;100.00;95228.34;10346686;28;20491;-72
2021/12/19 02:09:30;;;;;;;13.57;9.18;;;;;;;-2.29;100.00;95231.91;10352253;28;20021;-72
2021/12/19 02:14:30;;;;;;;17.85;8.48;;;;;;;-2.20;100.00;95221.28;10363795;28;20033;-73
2021/12/19 02:19:32;;;;;;;11.75;7.60;;;;;;;-2.12;100.00;95221.19;10362130;28;20452;-70
2021/12/19 02:24:34;;;;;;;13.98;8.00;;;;;;;-2.04;100.00;95215.81;10362202;28;20528;-74
2021/12/19 02:29:34;;;;;;;14.35;7.72;;;;;;;-1.78;100.00;95210.06;10345637;28;20396;-72
2021/12/19 02:34:41;;;;;;;11.87;7.80;;;;;;;-1.67;100.00;95200.06;10361873;28;20026;-75
2021/12/19 02:40:07;;;;;;;12.05;7.47;;;;;;;-1.42;100.00;95204.00;10378264;28;20301;-74
2021/12/19 02:50:25;;;;;;;9.52;7.00;;;;;;;-1.54;100.00;95184.41;10362814;28;20384;-75
2021/12/19 02:55:26;;;;;;;10.27;6.90;;;;;;;-1.43;100.00;95191.00;10360880;28;20042;-71
2021/12/19 03:00:26;;;;;;;9.02;5.85;;;;;;;-1.36;100.00;95183.16;10376899;28;20037;-75
2021/12/19 03:05:30;;;;;;;11.35;8.27;;;;;;;-1.34;100.00;95176.72;10360529;28;20375;-73
2021/12/19 03:21:00;;;;;;;12.32;7.25;;;;;;;-1.92;100.00;95179.31;10373846;28;20503;-72
2021/12/19 03:26:01;;;;;;;14.98;7.28;;;;;;;-1.95;100.00;95182.31;10360005;28;20033;-77
2021/12/19 03:31:02;;;;;;;12.60;8.70;;;;;;;-1.83;100.00;95186.09;10375734;28;20068;-70
2021/12/19 03:36:04;;;;;;;11.63;8.05;;;;;;;-1.85;100.00;95180.19;10363005;28;20030;-74
2021/12/19 03:46:09;;;;;;;10.73;7.35;;;;;;;-1.94;100.00;95186.56;10359408;28;20033;-78
2021/12/19 03:51:10;;;;;;;10.52;7.15;;;;;;;-2.03;100.00;95187.69;10375309;28;20042;-71
2021/12/19 03:56:11;;;;;;;8.80;6.80;;;;;;;-2.09;100.00;95176.06;10358459;28;20443;-72
2021/12/19 04:01:11;;;;;;;13.82;7.55;;;;;;;-2.22;100.00;95170.63;10358757;28;20030;-73
2021/12/19 04:06:12;;;;;;;11.40;7.47;;;;;;;-2.36;100.00;95154.63;10358917;28;20458;-70
2021/12/19 04:11:12;;;;;;;16.30;7.28;;;;;;;-2.47;100.00;95157.72;10359191;28;20041;-73
2021/12/19 04:16:13;;;;;;;16.92;8.00;;;;;;;-2.55;100.00;95152.56;10375962;28;20108;-76
2021/12/19 04:21:13;;;;;;;12.20;6.85;;;;;;;-2.58;100.00;95148.50;10377722;28;20104;-71
2021/12/19 04:26:14;;;;;;;9.20;6.45;;;;;;;-2.57;100.00;95144.84;10362719;28;20120;-71
2021/12/19 04:31:14;;;;;;;9.27;6.57;;;;;;;-2.56;100.00;95135.97;10326859;28;20030;-70
2021/12/19 04:36:23;;;;;;;12.35;7.32;;;;;;;-2.47;100.00;95134.88;10360382;28;20539;-70
2021/12/19 05:02:51;;;;;;;8.07;5.05;;;;;;;-1.78;100.00;95123.13;10362834;28;20029;-73
2021/12/19 05:18:34;;;;;;;12.90;6.60;;;;;;;-1.23;100.00;95118.19;10365745;28;20030;-71
2021/12/19 05:24:02;;;;;;;15.10;7.93;;;;;;;-1.09;100.00;95121.75;10348735;28;20034;-74
2021/12/19 05:28:55;;;;;;;13.40;7.20;;;;;;;-1.01;100.00;95117.34;10360763;28;20041;-74
2021/12/19 05:33:55;;;;;;;11.63;6.40;;;;;;;-1.09;100.00;95111.22;10344325;28;20026;-72
2021/12/19 05:45:12;;;;;;;14.43;7.50;;;;;;;-1.00;100.00;95116.34;10364383;28;20606;-71
2021/12/19 05:49:35;;;;;;;16.10;8.52;;;;;;;-1.27;100.00;95116.09;10364032;28;20117;-68
2021/12/19 05:54:35;;;;;;;10.18;6.47;;;;;;;-1.42;100.00;95117.00;10362660;28;20034;-72
2021/12/19 05:59:36;;;;;;;18.23;7.38;;;;;;;-1.39;100.00;95115.81;10346265;28;20480;-71
2021/12/19 06:04:37;;;;;;;17.17;9.38;;;;;;;-1.57;100.00;95101.25;10327754;28;20061;-74
2021/12/19 06:09:37;;;;;;;19.65;8.55;;;;;;;-1.73;100.00;95096.22;10345707;28;20117;-72
2021/12/19 06:14:38;;;;;;;12.02;8.43;;;;;;;-1.95;100.00;95090.13;10345542;28;20100;-73
2021/12/19 06:19:39;;;;;;;15.25;8.23;;;;;;;-1.92;100.00;95093.19;10362211;28;20065;-72
2021/12/19 06:24:40;;;;;;;12.80;7.78;;;;;;;-1.79;100.00;95079.34;10360997;28;20033;-72
2021/12/19 06:29:40;;;;;;;17.63;10.02;;;;;;;-1.64;100.00;95065.31;10377983;28;20030;-70
2021/12/19 06:34:41;;;;;;;14.18;7.57;;;;;;;-1.61;100.00;95071.00;10377853;28;20034;-74
2021/12/19 06:39:42;;;;;;;15.80;8.63;;;;;;;-1.42;100.00;95069.53;10362338;28;20025;-69
2021/12/19 06:44:42;;;;;;;17.85;7.93;;;;;;;-1.40;100.00;95056.97;10360903;28;20030;-68
2021/12/19 06:49:43;;;;;;;14.50;7.95;;;;;;;-1.44;100.00;95052.28;10361114;28;20026;-69
2021/12/19 06:54:43;;;;;;;14.95;8.10;;;;;;;-1.34;100.00;95054.59;10343960;28;20056;-70
2021/12/19 06:59:44;;;;;;;18.48;7.28;;;;;;;-1.15;100.00;95046.00;10360516;28;20492;-71
2021/12/19 07:04:44;;;;;;;11.82;8.45;;;;;;;-1.28;100.00;95051.22;10360837;28;20034;-70
2021/12/19 07:09:45;;;;;;;20.55;8.90;;;;;;;-1.18;100.00;95049.03;10361020;28;20081;-70
2021/12/19 07:14:46;;;;;;;15.57;8.15;;;;;;;-0.94;100.00;95054.88;10344037;28;20101;-71
2021/12/19 07:19:46;;;;;;;14.70;8.48;;;;;;;-0.78;100.00;95040.56;10360638;28;20037;-76
2021/12/19 07:24:47;;;;;;;17.55;8.45;;;;;;;-0.63;100.00;95030.69;10358698;28;20505;-70
2021/12/19 07:29:48;;;;;;;14.80;8.38;;;;;;;-0.74;100.00;95040.00;10358984;28;20032;-71
2021/12/19 07:34:50;;;;;;;19.88;8.65;;;;;;;-0.49;100.00;95036.03;10359001;28;20049;-71
2021/12/19 07:39:54;;;;;;;16.80;7.75;;;;;;;-0.02;100.00;95026.44;10359398;28;20037;-72
2021/12/19 07:44:55;;;;;;;11.32;7.55;;;;;;;-0.03;100.00;95025.66;10358963;28;20026;-71
2021/12/19 07:49:55;;;;;;;18.43;8.77;;;;;;;0.49;100.00;95035.69;10359152;28;20053;-74
2021/12/19 07:54:55;;;;;;;13.50;5.97;;;;;;;0.58;100.00;95041.59;10358630;28;20304;-71
2021/12/19 07:59:56;;;;;;;31.10;10.77;;;;;;;1.04;100.00;95024.84;10360435;28;20496;-71
2021/12/19 08:04:57;;;;;;;11.77;6.57;;;;;;;1.60;100.00;95012.09;10359415;28;20147;-74
2021/12/19 08:10:01;;;;;;;12.18;7.30;;;;;;;1.94;100.00;94987.06;10361814;28;20142;-75
2021/12/19 08:15:03;;;;;;;11.90;6.90;;;;;;;1.65;100.00;94981.28;10355772;28;20026;-77
2021/12/19 08:20:06;;;;;;;12.57;6.07;;;;;;;1.85;100.00;94970.56;10355920;28;20433;-75
2021/12/19 08:25:07;;;;;;;15.77;8.20;;;;;;;2.36;100.00;94970.69;10355718;28;20026;-74
2021/12/19 08:30:12;;;;;;;12.65;5.82;;;;;;;2.45;100.00;94955.31;10357919;28;20439;-72
2021/12/19 08:35:14;;;;;;;14.00;6.38;;;;;;;2.03;100.00;94951.31;10361366;28;20141;-74
2021/12/19 08:40:15;;;;;;;10.98;6.38;;;;;;;3.41;100.00;94947.81;10366398;28;20041;-76
2021/12/19 08:45:15;;;;;;;19.77;7.57;;;;;;;3.84;100.00;94956.69;10364948;28;20030;-70
2021/12/19 08:50:16;;;;;;;46.55;17.55;;;;;;;4.16;100.00;94951.09;10366424;28;20061;-71
2021/12/19 08:55:18;;;;;;;23.45;7.10;;;;;;;3.93;100.00;94956.16;10348686;28;20123;-69
2021/12/19 09:00:19;;;;;;;12.85;6.60;;;;;;;3.39;100.00;94950.69;10364989;28;20111;-73
2021/12/19 09:05:20;;;;;;;13.35;6.78;;;;;;;3.20;100.00;94947.22;10364909;28;20108;-76
2021/12/19 09:10:22;;;;;;;18.52;8.23;;;;;;;3.16;100.00;94947.88;10365071;28;20124;-74
2021/12/19 09:15:23;;;;;;;17.10;6.88;;;;;;;2.65;100.00;94934.72;10366374;28;20034;-77
2021/12/19 09:20:24;;;;;;;18.85;7.45;;;;;;;2.14;100.00;94933.09;10363905;28;20038;-70
2021/12/19 09:25:24;;;;;;;19.67;7.68;;;;;;;1.01;100.00;94935.31;10364518;28;20033;-73
2021/12/19 09:30:25;;;;;;;12.00;7.32;;;;;;;1.07;100.00;94929.16;10364445;28;20445;-79
2021/12/19 09:35:25;;;;;;;22.20;8.70;;;;;;;0.66;100.00;94925.00;10364957;28;20092;-70
2021/12/19 09:40:33;;;;;;;16.83;8.05;;;;;;;0.66;100.00;94923.16;10365005;28;20083;-75
2021/12/19 09:45:33;;;;;;;15.10;7.20;;;;;;;0.77;100.00;94897.09;10363215;28;20476;-71
2021/12/19 09:50:34;;;;;;;22.25;9.70;;;;;;;1.09;100.00;94892.72;10347937;28;20033;-70
2021/12/19 09:55:34;;;;;;;22.95;8.45;;;;;;;1.60;100.00;94879.63;10364610;28;20046;-72
2021/12/19 10:00:35;;;;;;;15.23;8.30;;;;;;;2.04;100.00;94865.44;10362920;28;20066;-69
2021/12/19 10:05:36;;;;;;;15.38;7.90;;;;;;;2.13;100.00;94850.06;10362613;28;20026;-71
2021/12/19 10:10:53;;;;;;;14.43;8.35;;;;;;;2.58;100.00;94848.25;10362360;28;20026;-70
2021/12/19 10:15:53;;;;;;;13.18;7.57;;;;;;;2.85;100.00;94831.00;10361065;28;20540;-78
2021/12/19 10:20:57;;;;;;;22.75;8.68;;;;;;;3.05;100.00;94833.41;10377760;28;20045;-70
2021/12/19 10:26:06;;;;;;;21.55;9.27;;;;;;;3.43;100.00;94815.53;10345798;28;20466;-73
2021/12/19 10:31:10;;;;;;;16.27;8.55;;;;;;;3.44;100.00;94809.19;10361416;28;20048;-71
2021/12/19 10:36:11;;;;;;;23.55;9.88;;;;;;;3.31;100.00;94806.72;10344999;28;20022;-68
2021/12/19 10:41:14;;;;;;;19.83;9.15;;;;;;;3.67;100.00;94797.00;10344932;28;20121;-71
2021/12/19 10:46:15;;;;;;;26.80;11.48;;;;;;;4.39;100.00;94783.53;10360922;28;20531;-70
2021/12/19 10:51:18;;;;;;;17.60;8.38;;;;;;;5.51;100.00;94775.28;10360322;28;20105;-70
2021/12/19 10:56:31;;;;;;;15.32;7.18;;;;;;;5.39;99.53;94763.91;10343906;28;20046;-74
2021/12/19 11:01:34;;;;;;;15.00;9.38;;;;;;;5.33;100.00;94760.34;10360811;28;20121;-74
2021/12/19 11:06:39;;;;;;;12.20;7.75;;;;;;;5.65;100.00;94752.63;10339353;28;20149;-70
2021/12/19 11:11:42;;;;;;;25.80;9.43;;;;;;;5.95;96.49;94740.81;10356836;28;20520;-72
2021/12/19 11:16:44;;;;;;;16.98;7.95;;;;;;;6.15;97.93;94728.84;10356855;28;20530;-74
2021/12/19 11:21:44;;;;;;;15.05;7.90;;;;;;;6.37;88.61;94731.56;10372491;28;20034;-72
2021/12/19 11:26:48;;;;;;;14.73;6.82;;;;;;;6.13;88.19;94718.44;10350414;28;20030;-73
2021/12/19 11:31:57;;;;;;;11.02;6.78;;;;;;;5.57;97.60;94709.56;10351531;28;20199;-72
2021/12/19 11:37:02;;;;;;;15.38;7.13;;;;;;;8.06;78.73;94696.88;10357071;28;20028;-72
2021/12/19 11:42:15;;;;;;;21.02;6.97;;;;;;;9.20;66.20;94685.59;10339954;28;20045;-71
2021/12/19 11:47:43;;;;;;;12.02;6.05;;;;;;;10.19;55.37;94681.03;10355914;28;20069;-72
2021/12/19 11:52:43;;;;;;;11.57;6.20;;;;;;;7.82;63.19;94667.03;10354759;28;20033;-73
2021/12/19 11:58:14;;;;;;;11.88;6.55;;;;;;;6.40;78.39;94668.88;10372686;28;20666;-75
2021/12/19 12:03:14;;;;;;;17.52;7.25;;;;;;;5.65;84.10;94658.47;10354002;28;20022;-67
2021/12/19 12:08:21;;;;;;;17.67;7.47;;;;;;;5.51;94.18;94666.00;10357299;28;20389;-80
2021/12/19 12:13:32;;;;;;;15.38;7.65;;;;;;;5.52;92.94;94662.28;10369703;28;20104;-75
2021/12/19 12:18:38;;;;;;;17.70;7.45;;;;;;;5.23;94.77;94657.06;10369452;28;20034;-71
2021/12/19 12:23:51;;;;;;;17.42;7.90;;;;;;;5.02;97.33;94644.44;10372373;28;20026;-70
2021/12/19 12:28:51;;;;;;;13.57;6.57;;;;;;;5.00;100.00;94633.22;10371941;28;20085;-75
2021/12/19 12:33:54;;;;;;;29.77;10.30;;;;;;;4.73;100.00;94628.47;10371691;28;20133;-70
2021/12/19 12:38:55;;;;;;;20.92;8.52;;;;;;;5.09;100.00;94605.94;10356004;28;20109;-69
2021/12/19 12:44:03;;;;;;;15.63;7.50;;;;;;;5.02;100.00;94601.81;10371379;28;20479;-71
2021/12/19 12:49:07;;;;;;;13.25;7.47;;;;;;;4.71;100.00;94595.97;10371620;28;20561;-74
2021/12/19 12:54:15;;;;;;;20.80;9.50;;;;;;;4.54;100.00;94598.59;10372621;28;20082;-72
2021/12/19 12:59:24;;;;;;;18.80;8.30;;;;;;;3.97;100.00;94588.75;10355472;28;20100;-73
2021/12/19 13:04:26;;;;;;;19.98;8.75;;;;;;;3.33;100.00;94581.53;10371554;28;20361;-77
2021/12/19 13:09:36;;;;;;;22.00;10.50;;;;;;;3.24;100.00;94575.78;10387695;28;20029;-71
2021/12/19 13:15:04;;;;;;;23.50;11.07;;;;;;;2.90;100.00;94591.44;10372877;28;20030;-69
2021/12/19 13:20:13;;;;;;;21.43;9.77;;;;;;;2.87;100.00;94581.28;10366035;28;20129;-70
2021/12/19 13:25:22;;;;;;;23.23;9.43;;;;;;;2.59;100.00;94577.41;10332641;28;20018;-79
2021/12/19 13:30:31;;;;;;;22.75;12.52;;;;;;;2.60;100.00;94565.75;10364477;28;20025;-74
2021/12/19 13:35:33;;;;;;;23.50;11.68;;;;;;;2.51;100.00;94564.47;10363514;28;20510;-74
2021/12/19 13:40:42;;;;;;;19.08;9.55;;;;;;;2.45;100.00;94563.53;10363386;28;20088;-73
2021/12/19 13:45:49;;;;;;;28.02;10.48;;;;;;;2.31;100.00;94543.53;10363471;28;20029;-76
2021/12/19 13:51:17;;;;;;;18.55;9.10;;;;;;;2.25;100.00;94539.13;10347579;28;20046;-73
2021/12/19 13:56:20;;;;;;;23.45;11.55;;;;;;;2.23;100.00;94539.34;10378410;28;20037;-70
2021/12/19 14:01:24;;;;;;;27.42;10.20;;;;;;;2.16;100.00;94530.69;10362774;28;20077;-69
2021/12/19 14:06:35;;;;;;;17.60;9.63;;;;;;;2.18;100.00;94513.53;10368410;28;20062;-71
2021/12/19 14:11:39;;;;;;;19.15;9.32;;;;;;;2.10;100.00;94513.84;10362498;28;20037;-73
2021/12/19 14:16:44;;;;;;;19.98;9.18;;;;;;;1.85;100.00;94512.13;10363893;28;20033;-71
2021/12/19 14:21:45;;;;;;;24.40;8.25;;;;;;;1.75;100.00;94506.56;10345872;28;20026;-75
2021/12/19 14:27:11;;;;;;;18.58;9.07;;;;;;;1.63;100.00;94495.09;10362110;28;20084;-72
2021/12/19 14:32:20;;;;;;;14.60;7.05;;;;;;;1.19;100.00;94492.56;10351421;28;20038;-69
2021/12/19 14:37:23;;;;;;;21.75;9.73;;;;;;;1.06;100.00;94504.09;10345589;28;20025;-72
2021/12/19 14:42:30;;;;;;;20.58;9.45;;;;;;;0.99;100.00;94492.75;10360999;28;20088;-70
2021/12/19 14:47:50;;;;;;;19.92;9.98;;;;;;;1.41;100.00;94494.75;10367270;28;20547;-70
2021/12/19 14:52:59;;;;;;;23.63;10.05;;;;;;;1.63;100.00;94482.69;10361802;28;20017;-73
2021/12/19 14:58:02;;;;;;;20.88;10.30;;;;;;;1.77;100.00;94477.19;10344787;28;20538;-70
2021/12/19 15:03:03;;;;;;;25.67;10.57;;;;;;;1.71;100.00;94463.81;10360537;28;20468;-73
2021/12/19 15:08:06;;;;;;;22.73;10.23;;;;;;;1.78;100.00;94458.41;10320034;28;20034;-75
2021/12/19 15:13:07;;;;;;;20.80;9.55;;;;;;;1.70;100.00;94471.97;10344845;28;20089;-73
2021/12/19 15:18:07;;;;;;;21.25;8.88;;;;;;;1.65;100.00;94474.50;10361160;28;20048;-70
2021/12/19 15:23:08;;;;;;;20.55;8.98;;;;;;;1.83;100.00;94461.22;10361276;28;20110;-72
2021/12/19 15:28:08;;;;;;;17.38;8.43;;;;;;;1.87;100.00;94464.19;10359585;28;20442;-70
2021/12/19 15:33:09;;;;;;;22.25;10.00;;;;;;;1.91;100.00;94472.53;10360625;28;20067;-71
2021/12/19 15:38:09;;;;;;;20.08;10.23;;;;;;;1.84;100.00;94477.91;10359463;28;20568;-72
2021/12/19 15:43:11;;;;;;;20.83;9.50;;;;;;;1.96;100.00;94460.22;10358267;28;20393;-73
2021/12/19 15:48:11;;;;;;;26.10;9.18;;;;;;;1.95;100.00;94455.13;10359141;28;20036;-74
2021/12/19 15:53:11;;;;;;;20.52;8.75;;;;;;;1.62;100.00;94451.94;10359101;28;20033;-74
2021/12/19 15:58:13;;;;;;;18.67;7.95;;;;;;;1.65;100.00;94426.84;10358881;28;20068;-73
2021/12/19 16:03:14;;;;;;;15.45;8.40;;;;;;;1.30;100.00;94428.28;10357964;28;20400;-74
2021/12/19 16:08:15;;;;;;;17.83;8.38;;;;;;;1.31;100.00;94427.25;10360286;28;20034;-73
2021/12/19 16:13:19;;;;;;;15.10;7.72;;;;;;;1.47;100.00;94415.22;10358286;28;20026;-72
2021/12/19 16:18:19;;;;;;;17.95;8.90;;;;;;;1.64;100.00;94404.81;10358373;28;20028;-76
2021/12/19 16:23:20;;;;;;;15.70;7.88;;;;;;;1.82;100.00;94406.59;10358027;28;20033;-70
2021/12/19 16:28:20;;;;;;;15.73;7.05;;;;;;;2.07;100.00;94402.97;10358107;28;20029;-68
2021/12/19 16:33:21;;;;;;;16.77;7.22;;;;;;;2.20;100.00;94401.94;10357982;28;20034;-70
2021/12/19 16:38:22;;;;;;;11.10;6.38;;;;;;;2.31;100.00;94387.09;10357712;28;20129;-74
2021/12/19 16:43:34;;;;;;;12.60;6.03;;;;;;;2.37;100.00;94392.28;10357852;28;20096;-69
2021/12/19 16:48:36;;;;;;;22.83;7.70;;;;;;;2.41;100.00;94392.63;10357871;28;20049;-70
2021/12/19 16:53:38;;;;;;;14.80;6.18;;;;;;;2.46;100.00;94400.69;10358575;28;20050;-71
2021/12/19 16:58:38;;;;;;;12.02;6.72;;;;;;;2.32;100.00;94409.94;10348347;28;20486;-71
2021/12/19 17:03:39;;;;;;;13.68;6.45;;;;;;;2.32;100.00;94389.50;10366082;28;20038;-73
2021/12/19 17:08:40;;;;;;;14.88;6.68;;;;;;;2.21;100.00;94372.56;10365123;28;20033;-71
2021/12/19 17:13:53;;;;;;;20.38;7.20;;;;;;;2.22;100.00;94360.13;10364776;28;20045;-71
2021/12/19 17:18:53;;;;;;;19.02;7.22;;;;;;;2.04;100.00;94351.22;10364502;28;20409;-74
2021/12/19 17:23:54;;;;;;;13.48;6.10;;;;;;;1.84;100.00;94348.91;10365360;28;20030;-73
2021/12/19 17:28:55;;;;;;;13.40;6.50;;;;;;;1.70;100.00;94350.13;10364302;28;20038;-72
2021/12/19 17:33:56;;;;;;;13.73;6.60;;;;;;;1.71;100.00;94341.16;10363669;28;20566;-75
2021/12/19 17:38:58;;;;;;;15.82;6.65;;;;;;;1.76;100.00;94335.97;10348437;28;20148;-71
2021/12/19 17:43:59;;;;;;;12.15;6.45;;;;;;;1.74;100.00;94339.88;10363766;28;20546;-69
2021/12/19 17:49:03;;;;;;;10.70;6.38;;;;;;;1.85;100.00;94341.75;10347045;28;20033;-76
2021/12/19 17:54:05;;;;;;;10.82;5.15;;;;;;;1.84;100.00;94348.06;10379834;28;20166;-73
2021/12/19 17:59:06;;;;;;;11.25;4.57;;;;;;;1.93;100.00;94330.81;10362800;28;20095;-71
2021/12/19 18:04:08;;;;;;;9.73;5.00;;;;;;;2.12;100.00;94322.75;10364132;28;20079;-72
2021/12/19 18:09:08;;;;;;;13.18;4.10;;;;;;;2.23;100.00;94311.34;10378734;28;20034;-69
2021/12/19 18:14:09;;;;;;;10.10;4.15;;;;;;;2.38;100.00;94298.41;10361955;28;20612;-71
2021/12/19 18:19:10;;;;;;;7.80;4.47;;;;;;;2.49;100.00;94303.94;10346166;28;20022;-74
2021/12/19 18:24:10;;;;;;;7.00;4.45;;;;;;;2.54;100.00;94304.88;10362263;28;20033;-69
2021/12/19 18:29:13;;;;;;;21.58;5.25;;;;;;;2.62;100.00;94302.88;10359233;28;20041;-72
2021/12/19 18:34:18;;;;;;;9.25;4.05;;;;;;;2.68;100.00;94291.31;10359345;28;20041;-71
2021/12/19 18:39:22;;;;;;;14.10;4.63;;;;;;;2.69;100.00;94279.69;10358645;28;20026;-71
2021/12/19 18:44:30;;;;;;;10.35;5.30;;;;;;;2.72;100.00;94276.53;10356808;28;20026;-70
2021/12/19 19:00:26;;;;;;;9.18;4.47;;;;;;;2.60;100.00;94262.53;10356582;28;20033;-72
2021/12/19 19:05:33;;;;;;;15.88;4.57;;;;;;;2.66;100.00;94259.72;10357740;28;20079;-72
2021/12/19 19:10:34;;;;;;;8.90;4.85;;;;;;;2.53;100.00;94257.34;10371458;28;20563;-73
2021/12/19 19:15:35;;;;;;;13.00;3.28;;;;;;;2.56;100.00;94268.28;10374148;28;20026;-70
2021/12/19 19:20:36;;;;;;;10.68;3.05;;;;;;;2.52;100.00;94261.03;10370213;28;20030;-70
2021/12/19 19:25:37;;;;;;;5.47;2.90;;;;;;;2.50;100.00;94250.66;10357627;28;20029;-73
2021/12/19 19:30:39;;;;;;;6.05;3.35;;;;;;;2.40;100.00;94253.13;10357261;28;20104;-72
2021/12/19 19:35:39;;;;;;;6.85;3.33;;;;;;;2.39;100.00;94251.50;10370951;28;20025;-73
2021/12/19 19:40:52;;;;;;;5.72;3.13;;;;;;;2.37;100.00;94249.09;10371062;28;20025;-74
2021/12/19 19:51:11;;;;;;;7.50;3.30;;;;;;;2.45;100.00;94245.25;10358086;28;20391;-70
2021/12/19 19:56:12;;;;;;;6.53;3.80;;;;;;;2.48;100.00;94250.06;10372137;28;20233;-74
2021/12/19 20:01:12;;;;;;;6.22;3.10;;;;;;;2.38;100.00;94250.69;10356036;28;20423;-69
2021/12/19 20:06:13;;;;;;;4.13;2.63;;;;;;;2.47;100.00;94229.94;10374994;28;20416;-75
2021/12/19 20:11:13;;;;;;;7.20;2.70;;;;;;;2.43;100.00;94233.25;10375130;28;20048;-71
2021/12/19 20:16:18;;;;;;;7.22;3.08;;;;;;;2.48;100.00;94220.09;10357947;28;20276;-71
2021/12/19 20:21:19;;;;;;;8.10;3.47;;;;;;;2.47;100.00;94215.84;10359863;28;20356;-72
2021/12/19 20:26:20;;;;;;;4.75;2.78;;;;;;;2.50;100.00;94224.16;10357279;28;20073;-70
2021/12/19 20:31:20;;;;;;;13.07;2.90;;;;;;;2.57;100.00;94216.06;10379048;28;20021;-70
2021/12/19 20:36:20;;;;;;;11.25;2.72;;;;;;;2.39;100.00;94211.72;10367044;28;20014;-70
2021/12/19 20:41:22;;;;;;;4.38;2.63;;;;;;;2.45;100.00;94194.84;10366574;28;20515;-70
2021/12/19 20:46:26;;;;;;;8.88;3.33;;;;;;;2.42;100.00;94197.97;10349919;28;20418;-71
2021/12/19 20:51:26;;;;;;;7.35;2.83;;;;;;;2.43;100.00;94181.03;10368462;28;20526;-78
2021/12/19 20:56:27;;;;;;;5.43;2.72;;;;;;;2.51;100.00;94188.63;10365906;28;20042;-68
2021/12/19 21:01:27;;;;;;;7.10;3.22;;;;;;;2.48;100.00;94170.50;10365747;28;20079;-78
2021/12/19 21:06:32;;;;;;;5.97;2.58;;;;;;;2.47;100.00;94165.44;10365613;28;20117;-75
2021/12/19 21:11:34;;;;;;;5.60;2.63;;;;;;;2.52;100.00;94157.59;10365530;28;20068;-69
2021/12/19 21:22:08;;;;;;;4.35;2.20;;;;;;;2.51;100.00;94159.44;10352917;28;20034;-75
2021/12/19 21:27:12;;;;;;;4.45;2.80;;;;;;;2.52;100.00;94157.59;10349992;28;20089;-80
2021/12/19 21:32:12;;;;;;;4.78;2.55;;;;;;;2.52;100.00;94162.91;10365331;28;20474;-79
2021/12/19 21:42:36;;;;;;;6.40;2.80;;;;;;;2.56;100.00;94143.59;10370631;28;20105;-75
2021/12/19 21:47:36;;;;;;;6.22;2.65;;;;;;;2.58;100.00;94138.06;10363880;28;20022;-71
2021/12/19 21:52:38;;;;;;;5.13;3.25;;;;;;;2.60;100.00;94121.94;10364841;28;20114;-70
2021/12/19 21:57:38;;;;;;;4.07;2.65;;;;;;;2.62;100.00;94119.84;10364079;28;20046;-73
2021/12/19 22:02:39;;;;;;;7.03;3.00;;;;;;;2.70;100.00;94117.59;10364186;28;20087;-72
2021/12/19 22:07:41;;;;;;;6.82;2.30;;;;;;;2.77;100.00;94120.09;10347274;28;20062;-71
2021/12/19 22:12:55;;;;;;;4.88;2.20;;;;;;;2.81;100.00;94104.50;10363257;28;20030;-76
2021/12/19 22:17:58;;;;;;;3.50;1.95;;;;;;;2.81;100.00;94100.00;10379945;28;20030;-72
2021/12/19 22:22:59;;;;;;;4.50;2.40;;;;;;;2.85;100.00;94105.66;10362618;28;20104;-70
2021/12/19 22:28:02;;;;;;;4.47;2.70;;;;;;;3.01;100.00;94114.66;10369363;28;20030;-73
2021/12/19 22:33:03;;;;;;;7.15;2.80;;;;;;;3.15;100.00;94115.94;10361978;28;20026;-72
2021/12/19 22:38:04;;;;;;;4.15;2.03;;;;;;;3.29;100.00;94110.31;10362363;28;20022;-81
2021/12/19 22:43:07;;;;;;;5.13;2.38;;;;;;;3.30;100.00;94122.53;10362221;28;20080;-74
2021/12/19 22:48:08;;;;;;;3.75;2.58;;;;;;;3.34;100.00;94113.84;10361848;28;20039;-74
2021/12/19 22:53:09;;;;;;;6.30;2.88;;;;;;;3.38;100.00;94103.53;10345426;28;20032;-73
2021/12/19 22:58:09;;;;;;;4.60;2.20;;;;;;;3.21;100.00;94112.31;10360895;28;20022;-69
2021/12/19 23:03:12;;;;;;;4.25;2.28;;;;;;;3.25;100.00;94108.13;10377317;28;20466;-72
2021/12/19 23:08:13;;;;;;;10.10;3.58;;;;;;;3.22;100.00;94105.97;10377051;28;20030;-72
2021/12/19 23:13:22;;;;;;;5.47;2.50;;;;;;;3.34;100.00;94107.72;10344848;28;20029;-69
2021/12/19 23:18:23;;;;;;;7.68;3.80;;;;;;;3.36;100.00;94105.63;10360819;28;20060;-70
2021/12/19 23:23:23;;;;;;;6.68;4.10;;;;;;;3.17;100.00;94108.53;10303255;28;20041;-73
2021/12/19 23:28:24;;;;;;;6.40;4.00;;;;;;;3.27;100.00;94101.78;10342491;28;20116;-68
2021/12/19 23:48:54;;;;;;;7.82;3.95;;;;;;;3.16;100.00;94120.19;10363333;28;20026;-73
2021/12/19 23:53:55;;;;;;;12.02;3.70;;;;;;;3.05;100.00;94127.19;10359339;28;20046;-72
2021/12/19 23:58:55;;;;;;;7.53;4.00;;;;;;;2.99;100.00;94138.00;10359026;28;20026;-73
